Time,TemperatureF,DewpointF,PressureIn,WindDirection,WindDirectionDegrees,WindSpeedMPH,WindSpeedGustMPH,Humidity,HourlyPrecipIn,Conditions,Clouds,dailyrainin,SoftwareType,DateUTC
2013-02-14 00:00:00,37.6,31.1,30.00,SSW,212,0.0,0.0,77,0.00,,,0.00,VWS V14.01,2013-02-14 05:00:00,
2013-02-14 00:05:00,37.6,31.1,30.00,SSW,212,0.0,0.0,77,0.00,,,0.00,VWS V14.01,2013-02-14 05:05:00,
2013-02-14 00:10:00,37.5,31.3,30.00,SSW,212,0.0,1.0,78,0.00,,,0.00,VWS V14.01,2013-02-14 05:10:00,
2013-02-14 00:15:00,37.4,30.9,30.00,SSW,212,0.0,0.0,77,0.00,,,0.00,VWS V14.01,2013-02-14 05:15:00,
2013-02-14 00:20:00,37.3,31.1,30.00,SSW,204,0.0,0.0,78,0.00,,,0.00,VWS V14.01,2013-02-14 05:20:00,
2013-02-14 00:25:00,37.3,31.1,30.00,SSW,204,0.0,0.0,78,0.00,,,0.00,VWS V14.01,2013-02-14 05:25:00,
2013-02-14 00:30:00,37.3,31.1,30.00,SSW,204,1.0,2.0,78,0.00,,,0.00,VWS V14.01,2013-02-14 05:30:00,
2013-02-14 00:35:00,37.3,31.1,30.00,SSW,204,0.0,0.0,78,0.00,,,0.00,VWS V14.01,2013-02-14 05:35:00,
2013-02-14 00:40:00,37.2,31.0,30.00,SSW,206,0.0,2.0,78,0.00,,,0.00,VWS V14.01,2013-02-14 05:40:00,
2013-02-14 00:45:00,37.2,31.0,30.01,SSW,206,0.0,0.0,78,0.00,,,0.00,VWS V14.01,2013-02-14 05:45:00,
2013-02-14 00:50:00,37.3,31.1,30.01,SSW,205,0.0,0.0,78,0.00,,,0.00,VWS V14.01,2013-02-14 05:50:00,
2013-02-14 00:55:00,37.3,31.1,30.01,SSW,205,0.0,0.0,78,0.00,,,0.00,VWS V14.01,2013-02-14 05:55:00,
2013-02-14 01:00:00,37.3,31.1,30.01,SSW,203,0.0,1.0,78,0.00,,,0.00,VWS V14.01,2013-02-14 06:00:00,
2013-02-14 01:05:00,37.3,31.1,30.01,SSW,203,0.0,0.0,78,0.00,,,0.00,VWS V14.01,2013-02-14 06:05:00,
2013-02-14 01:10:00,37.3,31.1,30.01,SSW,203,0.0,0.0,78,0.00,,,0.00,VWS V14.01,2013-02-14 06:10:00,
2013-02-14 01:15:00,37.3,31.1,30.01,SSW,203,0.0,0.0,78,0.00,,,0.00,VWS V14.01,2013-02-14 06:15:00,
2013-02-14 01:20:00,37.3,31.1,30.01,SSW,203,1.0,1.0,78,0.00,,,0.00,VWS V14.01,2013-02-14 06:20:00,
2013-02-14 01:25:00,37.3,31.1,30.01,SSW,203,0.0,1.0,78,0.00,,,0.00,VWS V14.01,2013-02-14 06:25:00,
2013-02-14 01:30:00,37.3,31.1,30.01,SSW,203,0.0,0.0,78,0.00,,,0.00,VWS V14.01,2013-02-14 06:30:00,
2013-02-14 01:35:00,37.3,31.1,30.01,SSW,203,0.0,0.0,78,0.00,,,0.00,VWS V14.01,2013-02-14 06:35:00,
2013-02-14 01:40:00,37.3,31.1,30.01,SSW,203,0.0,0.0,78,0.00,,,0.00,VWS V14.01,2013-02-14 06:40:00,
2013-02-14 01:45:00,37.3,31.1,30.01,SW,226,1.0,3.0,78,0.00,,,0.00,VWS V14.01,2013-02-14 06:45:00,
2013-02-14 01:50:00,37.3,31.1,30.01,SW,226,0.0,0.0,78,0.00,,,0.00,VWS V14.01,2013-02-14 06:50:00,
2013-02-14 01:55:00,37.3,30.8,30.01,SW,226,2.0,3.0,77,0.00,,,0.00,VWS V14.01,2013-02-14 06:55:00,
2013-02-14 02:00:00,37.4,31.2,30.02,SW,226,1.0,2.0,78,0.00,,,0.00,VWS V14.01,2013-02-14 07:00:00,
2013-02-14 02:05:00,37.4,31.2,30.02,SW,226,0.0,2.0,78,0.00,,,0.00,VWS V14.01,2013-02-14 07:05:00,
2013-02-14 02:10:00,37.4,31.2,30.02,SW,226,1.0,2.0,78,0.00,,,0.00,VWS V14.01,2013-02-14 07:10:00,
2013-02-14 02:15:00,37.4,31.2,30.02,WSW,244,1.0,3.0,78,0.00,,,0.00,VWS V14.01,2013-02-14 07:15:00,
2013-02-14 02:20:00,37.4,31.2,30.02,WSW,244,2.0,2.0,78,0.00,,,0.00,VWS V14.01,2013-02-14 07:20:00,
2013-02-14 02:25:00,37.4,31.2,30.02,WSW,247,4.0,4.0,78,0.00,,,0.00,VWS V14.01,2013-02-14 07:25:00,
2013-02-14 02:30:00,37.4,30.9,30.02,West,263,0.0,1.0,77,0.00,,,0.00,VWS V14.01,2013-02-14 07:30:00,
2013-02-14 02:35:00,37.4,30.9,30.02,SSW,210,2.0,2.0,77,0.00,,,0.00,VWS V14.01,2013-02-14 07:35:00,
2013-02-14 02:40:00,37.4,30.9,30.02,SSW,209,0.0,1.0,77,0.00,,,0.00,VWS V14.01,2013-02-14 07:40:00,
2013-02-14 02:45:00,37.4,30.9,30.02,West,268,0.0,0.0,77,0.00,,,0.00,VWS V14.01,2013-02-14 07:45:00,
2013-02-14 02:50:00,37.4,30.9,30.02,West,268,0.0,0.0,77,0.00,,,0.00,VWS V14.01,2013-02-14 07:50:00,
2013-02-14 02:55:00,37.4,30.9,30.02,SW,215,0.0,1.0,77,0.00,,,0.00,VWS V14.01,2013-02-14 07:55:00,
2013-02-14 03:00:00,37.3,30.8,30.02,SW,215,0.0,0.0,77,0.00,,,0.00,VWS V14.01,2013-02-14 08:00:00,
2013-02-14 03:05:00,37.3,30.8,30.02,SSW,212,0.0,0.0,77,0.00,,,0.00,VWS V14.01,2013-02-14 08:05:00,
2013-02-14 03:10:00,37.3,30.8,30.02,SSW,212,0.0,0.0,77,0.00,,,0.00,VWS V14.01,2013-02-14 08:10:00,
2013-02-14 03:15:00,37.2,30.7,30.02,SW,222,1.0,3.0,77,0.00,,,0.00,VWS V14.01,2013-02-14 08:15:00,
2013-02-14 03:20:00,37.2,30.7,30.02,SW,215,0.0,0.0,77,0.00,,,0.00,VWS V14.01,2013-02-14 08:20:00,
2013-02-14 03:25:00,37.1,30.6,30.02,SW,215,0.0,0.0,77,0.00,,,0.00,VWS V14.01,2013-02-14 08:25:00,
2013-02-14 03:30:00,37.2,30.7,30.02,SSW,210,0.0,0.0,77,0.00,,,0.00,VWS V14.01,2013-02-14 08:30:00,
2013-02-14 03:35:00,37.1,30.6,30.02,SSW,210,0.0,0.0,77,0.00,,,0.00,VWS V14.01,2013-02-14 08:35:00,
2013-02-14 03:40:00,37.1,30.6,30.01,SSW,210,0.0,0.0,77,0.00,,,0.00,VWS V14.01,2013-02-14 08:40:00,
2013-02-14 03:45:00,37.0,30.5,30.02,SSW,208,0.0,0.0,77,0.00,,,0.00,VWS V14.01,2013-02-14 08:45:00,
2013-02-14 03:50:00,37.0,30.1,30.01,SSW,208,0.0,2.0,76,0.00,,,0.00,VWS V14.01,2013-02-14 08:50:00,
2013-02-14 03:55:00,36.9,30.0,30.01,SSW,202,0.0,0.0,76,0.00,,,0.00,VWS V14.01,2013-02-14 08:55:00,
2013-02-14 04:00:00,36.9,30.0,30.02,SSW,202,1.0,1.0,76,0.00,,,0.00,VWS V14.01,2013-02-14 09:00:00,
2013-02-14 04:05:00,36.9,30.0,30.01,SSW,202,0.0,0.0,76,0.00,,,0.00,VWS V14.01,2013-02-14 09:05:00,
2013-02-14 04:10:00,36.8,30.0,30.01,SSW,202,0.0,0.0,76,0.00,,,0.00,VWS V14.01,2013-02-14 09:10:00,
2013-02-14 04:15:00,36.7,29.9,30.02,SSW,202,0.0,0.0,76,0.00,,,0.00,VWS V14.01,2013-02-14 09:15:00,
2013-02-14 04:20:00,36.7,30.2,30.02,SSW,202,0.0,0.0,77,0.00,,,0.00,VWS V14.01,2013-02-14 09:20:00,
2013-02-14 04:25:00,36.6,30.1,30.02,SSW,202,0.0,0.0,77,0.00,,,0.00,VWS V14.01,2013-02-14 09:25:00,
2013-02-14 04:31:00,36.6,30.1,30.02,SSW,202,0.0,0.0,77,0.00,,,0.00,VWS V14.01,2013-02-14 09:31:00,
2013-02-14 04:36:00,36.5,30.0,30.02,SSW,198,0.0,0.0,77,0.00,,,0.00,VWS V14.01,2013-02-14 09:36:00,
2013-02-14 04:41:00,36.5,30.3,30.02,SSW,198,0.0,0.0,78,0.00,,,0.00,VWS V14.01,2013-02-14 09:41:00,
2013-02-14 04:45:00,36.6,30.4,30.02,SSW,198,0.0,0.0,78,0.00,,,0.00,VWS V14.01,2013-02-14 09:45:00,
2013-02-14 04:50:00,36.5,30.3,30.02,SSW,198,0.0,0.0,78,0.00,,,0.00,VWS V14.01,2013-02-14 09:50:00,
2013-02-14 04:55:00,36.5,30.0,30.02,SSW,198,0.0,0.0,77,0.00,,,0.00,VWS V14.01,2013-02-14 09:55:00,
2013-02-14 05:00:00,36.5,30.0,30.02,SSW,198,0.0,0.0,77,0.00,,,0.00,VWS V14.01,2013-02-14 10:00:00,
2013-02-14 05:05:00,36.5,30.3,30.02,SSW,198,0.0,0.0,78,0.00,,,0.00,VWS V14.01,2013-02-14 10:05:00,
2013-02-14 05:10:00,36.5,30.3,30.02,SSW,198,0.0,0.0,78,0.00,,,0.00,VWS V14.01,2013-02-14 10:10:00,
2013-02-14 05:15:00,36.6,30.4,30.02,SSW,198,0.0,0.0,78,0.00,,,0.00,VWS V14.01,2013-02-14 10:15:00,
2013-02-14 05:20:00,36.6,30.1,30.02,SSW,198,0.0,0.0,77,0.00,,,0.00,VWS V14.01,2013-02-14 10:20:00,
2013-02-14 05:25:00,36.6,30.4,30.02,SSW,198,0.0,0.0,78,0.00,,,0.00,VWS V14.01,2013-02-14 10:25:00,
2013-02-14 05:30:00,36.5,30.0,30.02,SSW,198,0.0,0.0,77,0.00,,,0.00,VWS V14.01,2013-02-14 10:30:00,
2013-02-14 05:35:00,36.5,30.3,30.02,SSW,198,1.0,2.0,78,0.00,,,0.00,VWS V14.01,2013-02-14 10:35:00,
2013-02-14 05:41:00,36.5,30.0,30.02,SSW,198,0.0,0.0,77,0.00,,,0.00,VWS V14.01,2013-02-14 10:41:00,
2013-02-14 05:45:00,36.6,30.4,30.02,SSW,198,0.0,0.0,78,0.00,,,0.00,VWS V14.01,2013-02-14 10:45:00,
2013-02-14 05:50:00,36.6,30.4,30.03,SSW,198,0.0,0.0,78,0.00,,,0.00,VWS V14.01,2013-02-14 10:50:00,
2013-02-14 05:55:00,36.6,30.4,30.03,SSW,198,0.0,0.0,78,0.00,,,0.00,VWS V14.01,2013-02-14 10:55:00,
2013-02-14 06:01:00,36.6,30.4,30.02,SSW,198,0.0,0.0,78,0.00,,,0.00,VWS V14.01,2013-02-14 11:01:00,
2013-02-14 06:05:00,36.6,30.4,30.02,SSW,198,0.0,0.0,78,0.00,,,0.00,VWS V14.01,2013-02-14 11:05:00,
2013-02-14 06:10:00,36.6,30.4,30.02,SSW,198,0.0,0.0,78,0.00,,,0.00,VWS V14.01,2013-02-14 11:10:00,
2013-02-14 06:16:00,36.6,30.4,30.02,SSW,198,0.0,0.0,78,0.00,,,0.00,VWS V14.01,2013-02-14 11:16:00,
2013-02-14 06:21:00,36.6,30.4,30.02,SSW,198,0.0,0.0,78,0.00,,,0.00,VWS V14.01,2013-02-14 11:21:00,
2013-02-14 06:26:00,36.6,30.4,30.02,SSW,198,0.0,0.0,78,0.00,,,0.00,VWS V14.01,2013-02-14 11:26:00,
2013-02-14 06:31:00,36.6,30.4,30.02,SSW,198,0.0,0.0,78,0.00,,,0.00,VWS V14.01,2013-02-14 11:31:00,
2013-02-14 06:36:00,36.5,30.3,30.02,SSW,198,0.0,0.0,78,0.00,,,0.00,VWS V14.01,2013-02-14 11:36:00,
2013-02-14 06:41:00,36.5,30.3,30.02,SSW,198,0.0,0.0,78,0.00,,,0.00,VWS V14.01,2013-02-14 11:41:00,
2013-02-14 06:45:00,36.5,30.6,30.02,SSW,198,0.0,0.0,79,0.00,,,0.00,VWS V14.01,2013-02-14 11:45:00,
2013-02-14 06:51:00,36.5,30.3,30.03,SSW,198,0.0,0.0,78,0.00,,,0.00,VWS V14.01,2013-02-14 11:51:00,
2013-02-14 06:55:00,36.5,30.6,30.03,SSW,198,0.0,0.0,79,0.00,,,0.00,VWS V14.01,2013-02-14 11:55:00,
2013-02-14 07:01:00,36.5,30.6,30.03,SSW,198,0.0,1.0,79,0.00,,,0.00,VWS V14.01,2013-02-14 12:01:00,
2013-02-14 07:06:00,36.5,30.3,30.03,SSW,198,0.0,0.0,78,0.00,,,0.00,VWS V14.01,2013-02-14 12:06:00,
2013-02-14 07:11:00,36.5,30.3,30.03,SSW,198,0.0,0.0,78,0.00,,,0.00,VWS V14.01,2013-02-14 12:11:00,
2013-02-14 07:16:00,36.5,30.6,30.03,SSW,198,0.0,0.0,79,0.00,,,0.00,VWS V14.01,2013-02-14 12:16:00,
2013-02-14 07:21:00,36.5,30.3,30.03,South,178,0.0,1.0,78,0.00,,,0.00,VWS V14.01,2013-02-14 12:21:00,
2013-02-14 07:26:00,36.6,30.7,30.04,South,178,0.0,0.0,79,0.00,,,0.00,VWS V14.01,2013-02-14 12:26:00,
2013-02-14 07:31:00,36.6,30.7,30.04,South,178,0.0,0.0,79,0.00,,,0.00,VWS V14.01,2013-02-14 12:31:00,
2013-02-14 07:36:00,36.5,30.6,30.04,South,170,1.0,2.0,79,0.00,,,0.00,VWS V14.01,2013-02-14 12:36:00,
2013-02-14 07:41:00,36.6,30.4,30.04,SSE,164,1.0,2.0,78,0.00,,,0.00,VWS V14.01,2013-02-14 12:41:00,
2013-02-14 07:46:00,36.6,30.4,30.04,SSE,164,0.0,1.0,78,0.00,,,0.00,VWS V14.01,2013-02-14 12:46:00,
2013-02-14 07:51:00,36.5,30.3,30.04,SSE,167,3.0,3.0,78,0.00,,,0.00,VWS V14.01,2013-02-14 12:51:00,
2013-02-14 07:56:00,36.5,30.3,30.05,SSE,168,0.0,3.0,78,0.00,,,0.00,VWS V14.01,2013-02-14 12:56:00,
2013-02-14 08:01:00,36.6,30.1,30.05,SSE,157,3.0,3.0,77,0.00,,,0.00,VWS V14.01,2013-02-14 13:01:00,
2013-02-14 08:06:00,36.7,30.2,30.05,South,170,0.0,2.0,77,0.00,,,0.00,VWS V14.01,2013-02-14 13:06:00,
2013-02-14 08:11:00,36.8,30.3,30.05,South,180,2.0,2.0,77,0.00,,,0.00,VWS V14.01,2013-02-14 13:11:00,
2013-02-14 08:16:00,37.0,30.5,30.05,South,191,3.0,3.0,77,0.00,,,0.00,VWS V14.01,2013-02-14 13:16:00,
2013-02-14 08:21:00,37.3,30.8,30.06,South,186,1.0,2.0,77,0.00,,,0.00,VWS V14.01,2013-02-14 13:21:00,
2013-02-14 08:26:00,37.5,30.6,30.06,West,271,0.0,2.0,76,0.00,,,0.00,VWS V14.01,2013-02-14 13:26:00,
2013-02-14 08:31:00,37.7,30.8,30.06,West,271,1.0,2.0,76,0.00,,,0.00,VWS V14.01,2013-02-14 13:31:00,
2013-02-14 08:36:00,37.9,30.7,30.06,WSW,248,0.0,2.0,75,0.00,,,0.00,VWS V14.01,2013-02-14 13:36:00,
2013-02-14 08:41:00,38.0,30.8,30.06,SSW,209,1.0,1.0,75,0.00,,,0.00,VWS V14.01,2013-02-14 13:41:00,
2013-02-14 08:46:00,38.2,30.7,30.07,South,173,0.0,5.0,74,0.00,,,0.00,VWS V14.01,2013-02-14 13:46:00,
2013-02-14 08:51:00,38.4,30.9,30.07,SSW,203,3.0,3.0,74,0.00,,,0.00,VWS V14.01,2013-02-14 13:51:00,
2013-02-14 08:56:00,38.6,30.7,30.07,South,178,2.0,4.0,73,0.00,,,0.00,VWS V14.01,2013-02-14 13:56:00,
2013-02-14 09:01:00,38.8,30.9,30.07,South,175,0.0,3.0,73,0.00,,,0.00,VWS V14.01,2013-02-14 14:01:00,
2013-02-14 09:06:00,39.0,30.4,30.08,SW,227,3.0,4.0,71,0.00,,,0.00,VWS V14.01,2013-02-14 14:06:00,
2013-02-14 09:11:00,39.2,30.6,30.08,SW,223,2.0,4.0,71,0.00,,,0.00,VWS V14.01,2013-02-14 14:11:00,
2013-02-14 09:16:00,39.6,31.0,30.08,SW,216,2.0,6.0,71,0.00,,,0.00,VWS V14.01,2013-02-14 14:16:00,
2013-02-14 09:21:00,39.9,30.6,30.08,South,171,2.0,3.0,69,0.00,,,0.00,VWS V14.01,2013-02-14 14:21:00,
2013-02-14 09:26:00,40.3,31.3,30.08,WSW,241,0.0,4.0,70,0.00,,,0.00,VWS V14.01,2013-02-14 14:26:00,
2013-02-14 09:31:00,40.7,31.3,30.08,WSW,251,3.0,5.0,69,0.00,,,0.00,VWS V14.01,2013-02-14 14:31:00,
2013-02-14 09:36:00,41.3,31.5,30.08,WSW,244,4.0,6.0,68,0.00,,,0.00,VWS V14.01,2013-02-14 14:36:00,
2013-02-14 09:41:00,41.7,31.2,30.08,WSW,238,11.0,11.0,66,0.00,,,0.00,VWS V14.01,2013-02-14 14:41:00,
2013-02-14 09:46:00,41.9,31.4,30.08,West,259,7.0,9.0,66,0.00,,,0.00,VWS V14.01,2013-02-14 14:46:00,
2013-02-14 09:51:00,41.6,30.7,30.08,WSW,252,4.0,6.0,65,0.00,,,0.00,VWS V14.01,2013-02-14 14:51:00,
2013-02-14 09:56:00,41.5,30.6,30.08,WSW,254,4.0,8.0,65,0.00,,,0.00,VWS V14.01,2013-02-14 14:56:00,
2013-02-14 10:01:00,41.7,30.4,30.08,WSW,256,9.0,10.0,64,0.00,,,0.00,VWS V14.01,2013-02-14 15:01:00,
2013-02-14 10:06:00,42.1,30.8,30.08,WSW,256,9.0,13.0,64,0.00,,,0.00,VWS V14.01,2013-02-14 15:06:00,
2013-02-14 10:11:00,42.5,31.6,30.08,WSW,257,7.0,9.0,65,0.00,,,0.00,VWS V14.01,2013-02-14 15:11:00,
2013-02-14 10:16:00,42.7,31.0,30.08,West,279,6.0,9.0,63,0.00,,,0.00,VWS V14.01,2013-02-14 15:16:00,
2013-02-14 10:21:00,42.3,30.2,30.08,WSW,256,9.0,11.0,62,0.00,,,0.00,VWS V14.01,2013-02-14 15:21:00,
2013-02-14 10:26:00,41.9,30.2,30.08,West,265,6.0,10.0,63,0.00,,,0.00,VWS V14.01,2013-02-14 15:26:00,
2013-02-14 10:31:00,41.9,30.2,30.07,WSW,242,8.0,8.0,63,0.00,,,0.00,VWS V14.01,2013-02-14 15:31:00,
2013-02-14 10:36:00,42.1,30.8,30.08,WSW,258,5.0,7.0,64,0.00,,,0.00,VWS V14.01,2013-02-14 15:36:00,
2013-02-14 10:41:00,42.5,31.2,30.08,WSW,255,8.0,8.0,64,0.00,,,0.00,VWS V14.01,2013-02-14 15:41:00,
2013-02-14 10:46:00,42.9,31.2,30.07,West,267,5.0,12.0,63,0.00,,,0.00,VWS V14.01,2013-02-14 15:46:00,
2013-02-14 10:51:00,42.7,30.6,30.07,West,266,5.0,11.0,62,0.00,,,0.00,VWS V14.01,2013-02-14 15:51:00,
2013-02-14 10:56:00,42.4,30.3,30.07,WNW,289,2.0,7.0,62,0.00,,,0.00,VWS V14.01,2013-02-14 15:56:00,
2013-02-14 11:01:00,42.5,30.8,30.07,West,263,2.0,6.0,63,0.00,,,0.00,VWS V14.01,2013-02-14 16:01:00,
2013-02-14 11:06:00,43.1,31.4,30.07,West,264,0.0,3.0,63,0.00,,,0.00,VWS V14.01,2013-02-14 16:06:00,
2013-02-14 11:11:00,43.4,32.0,30.06,West,265,4.0,7.0,64,0.00,,,0.00,VWS V14.01,2013-02-14 16:11:00,
2013-02-14 11:16:00,43.8,32.4,30.06,WNW,289,7.0,8.0,64,0.00,,,0.00,VWS V14.01,2013-02-14 16:16:00,
2013-02-14 11:21:00,43.7,31.5,30.06,West,278,5.0,6.0,62,0.00,,,0.00,VWS V14.01,2013-02-14 16:21:00,
2013-02-14 11:26:00,43.9,32.1,30.06,West,264,4.0,5.0,63,0.00,,,0.00,VWS V14.01,2013-02-14 16:26:00,
2013-02-14 11:31:00,44.3,32.1,30.06,West,266,0.0,7.0,62,0.00,,,0.00,VWS V14.01,2013-02-14 16:31:00,
2013-02-14 11:36:00,44.6,32.0,30.06,WSW,240,2.0,3.0,61,0.00,,,0.00,VWS V14.01,2013-02-14 16:36:00,
2013-02-14 11:41:00,44.8,32.2,30.05,WSW,256,8.0,8.0,61,0.00,,,0.00,VWS V14.01,2013-02-14 16:41:00,
2013-02-14 11:46:00,45.1,32.5,30.05,West,265,1.0,4.0,61,0.00,,,0.00,VWS V14.01,2013-02-14 16:46:00,
2013-02-14 11:51:00,45.2,32.6,30.06,WNW,288,4.0,6.0,61,0.00,,,0.00,VWS V14.01,2013-02-14 16:51:00,
2013-02-14 11:56:00,45.4,31.5,30.06,West,264,5.0,7.0,58,0.00,,,0.00,VWS V14.01,2013-02-14 16:56:00,
2013-02-14 12:01:00,45.5,32.4,30.06,WSW,257,0.0,3.0,60,0.00,,,0.00,VWS V14.01,2013-02-14 17:01:00,
2013-02-14 12:06:00,45.6,30.8,30.06,NW,314,1.0,2.0,56,0.00,,,0.00,VWS V14.01,2013-02-14 17:06:00,
2013-02-14 12:11:00,45.7,32.2,30.06,WNW,298,5.0,7.0,59,0.00,,,0.00,VWS V14.01,2013-02-14 17:11:00,
2013-02-14 12:16:00,45.6,31.7,30.06,SW,231,2.0,5.0,58,0.00,,,0.00,VWS V14.01,2013-02-14 17:16:00,
2013-02-14 12:21:00,45.9,32.8,30.06,WNW,293,3.0,9.0,60,0.00,,,0.00,VWS V14.01,2013-02-14 17:21:00,
2013-02-14 12:26:00,46.4,32.9,30.06,West,261,6.0,8.0,59,0.00,,,0.00,VWS V14.01,2013-02-14 17:26:00,
2013-02-14 12:31:00,46.7,31.9,30.06,WSW,245,7.0,7.0,56,0.00,,,0.00,VWS V14.01,2013-02-14 17:31:00,
2013-02-14 12:36:00,46.9,31.6,30.06,SW,215,3.0,8.0,55,0.00,,,0.00,VWS V14.01,2013-02-14 17:36:00,
2013-02-14 12:41:00,47.1,32.2,30.06,WNW,291,4.0,7.0,56,0.00,,,0.00,VWS V14.01,2013-02-14 17:41:00,
2013-02-14 12:46:00,47.5,32.6,30.06,WSW,254,8.0,9.0,56,0.00,,,0.00,VWS V14.01,2013-02-14 17:46:00,
2013-02-14 12:51:00,47.7,32.3,30.06,WSW,238,8.0,10.0,55,0.00,,,0.00,VWS V14.01,2013-02-14 17:51:00,
2013-02-14 12:56:00,47.9,31.6,30.06,WNW,285,5.0,5.0,53,0.00,,,0.00,VWS V14.01,2013-02-14 17:56:00,
2013-02-14 13:01:00,47.9,31.6,30.05,West,266,8.0,12.0,53,0.00,,,0.00,VWS V14.01,2013-02-14 18:01:00,
2013-02-14 13:06:00,47.9,32.1,30.05,West,271,8.0,10.0,54,0.00,,,0.00,VWS V14.01,2013-02-14 18:06:00,
2013-02-14 13:11:00,48.1,32.7,30.05,West,261,4.0,7.0,55,0.00,,,0.00,VWS V14.01,2013-02-14 18:11:00,
2013-02-14 13:16:00,48.2,32.3,30.05,WSW,240,7.0,7.0,54,0.00,,,0.00,VWS V14.01,2013-02-14 18:16:00,
2013-02-14 13:21:00,48.3,32.4,30.04,WSW,239,2.0,6.0,54,0.00,,,0.00,VWS V14.01,2013-02-14 18:21:00,
2013-02-14 13:26:00,48.3,32.9,30.04,SSW,206,2.0,9.0,55,0.00,,,0.00,VWS V14.01,2013-02-14 18:26:00,
2013-02-14 13:31:00,48.7,32.8,30.04,WSW,247,6.0,6.0,54,0.00,,,0.00,VWS V14.01,2013-02-14 18:31:00,
2013-02-14 13:36:00,48.9,32.5,30.04,WSW,242,1.0,8.0,53,0.00,,,0.00,VWS V14.01,2013-02-14 18:36:00,
2013-02-14 13:41:00,49.1,33.7,30.03,SW,226,4.0,4.0,55,0.00,,,0.00,VWS V14.01,2013-02-14 18:41:00,
2013-02-14 13:46:00,49.2,33.3,30.03,West,266,5.0,7.0,54,0.00,,,0.00,VWS V14.01,2013-02-14 18:46:00,
2013-02-14 13:51:00,49.4,32.0,30.02,WSW,258,4.0,8.0,51,0.00,,,0.00,VWS V14.01,2013-02-14 18:51:00,
2013-02-14 13:56:00,49.5,31.1,30.02,West,272,9.0,14.0,49,0.00,,,0.00,VWS V14.01,2013-02-14 18:56:00,
2013-02-14 14:01:00,49.4,31.6,30.02,WSW,248,7.0,9.0,50,0.00,,,0.00,VWS V14.01,2013-02-14 19:01:00,
2013-02-14 14:06:00,49.2,31.4,30.01,West,264,5.0,8.0,50,0.00,,,0.00,VWS V14.01,2013-02-14 19:06:00,
2013-02-14 14:11:00,49.3,32.4,30.01,West,277,5.0,12.0,52,0.00,,,0.00,VWS V14.01,2013-02-14 19:11:00,
2013-02-14 14:16:00,49.7,32.3,30.01,WNW,291,4.0,10.0,51,0.00,,,0.00,VWS V14.01,2013-02-14 19:16:00,
2013-02-14 14:21:00,49.8,31.9,30.01,West,269,6.0,10.0,50,0.00,,,0.00,VWS V14.01,2013-02-14 19:21:00,
2013-02-14 14:26:00,50.0,33.1,30.01,SW,234,2.0,9.0,52,0.00,,,0.00,VWS V14.01,2013-02-14 19:26:00,
2013-02-14 14:31:00,50.0,32.1,30.01,West,265,4.0,6.0,50,0.00,,,0.00,VWS V14.01,2013-02-14 19:31:00,
2013-02-14 14:36:00,50.2,32.8,30.01,SW,236,7.0,10.0,51,0.00,,,0.00,VWS V14.01,2013-02-14 19:36:00,
2013-02-14 14:41:00,50.0,32.1,30.01,SW,231,4.0,6.0,50,0.00,,,0.00,VWS V14.01,2013-02-14 19:41:00,
2013-02-14 14:46:00,49.8,31.9,30.01,WSW,244,8.0,8.0,50,0.00,,,0.00,VWS V14.01,2013-02-14 19:46:00,
2013-02-14 14:51:00,50.0,32.1,30.01,WSW,242,7.0,7.0,50,0.00,,,0.00,VWS V14.01,2013-02-14 19:51:00,
2013-02-14 14:56:00,50.2,32.8,30.01,South,178,2.0,5.0,51,0.00,,,0.00,VWS V14.01,2013-02-14 19:56:00,
2013-02-14 15:01:00,50.3,32.9,30.02,WSW,239,7.0,7.0,51,0.00,,,0.00,VWS V14.01,2013-02-14 20:01:00,
2013-02-14 15:06:00,50.4,32.0,30.02,WSW,252,5.0,6.0,49,0.00,,,0.00,VWS V14.01,2013-02-14 20:06:00,
2013-02-14 15:11:00,50.6,32.2,30.02,WSW,256,6.0,10.0,49,0.00,,,0.00,VWS V14.01,2013-02-14 20:11:00,
2013-02-14 15:16:00,50.7,31.7,30.01,WSW,249,6.0,11.0,48,0.00,,,0.00,VWS V14.01,2013-02-14 20:16:00,
2013-02-14 15:21:00,50.8,32.3,30.01,WSW,254,9.0,11.0,49,0.00,,,0.00,VWS V14.01,2013-02-14 20:21:00,
2013-02-14 15:26:00,50.8,31.8,30.01,West,265,4.0,11.0,48,0.00,,,0.00,VWS V14.01,2013-02-14 20:26:00,
2013-02-14 15:31:00,50.9,32.9,30.01,WSW,251,6.0,11.0,50,0.00,,,0.00,VWS V14.01,2013-02-14 20:31:00,
2013-02-14 15:36:00,51.0,32.5,30.01,West,275,2.0,5.0,49,0.00,,,0.00,VWS V14.01,2013-02-14 20:36:00,
2013-02-14 15:41:00,51.0,32.5,30.01,WSW,245,11.0,12.0,49,0.00,,,0.00,VWS V14.01,2013-02-14 20:41:00,
2013-02-14 15:46:00,51.1,32.6,30.01,WSW,254,7.0,10.0,49,0.00,,,0.00,VWS V14.01,2013-02-14 20:46:00,
2013-02-14 15:51:00,51.3,32.8,30.01,West,263,7.0,10.0,49,0.00,,,0.00,VWS V14.01,2013-02-14 20:51:00,
2013-02-14 15:56:00,51.4,32.4,30.01,WSW,239,4.0,6.0,48,0.00,,,0.00,VWS V14.01,2013-02-14 20:56:00,
2013-02-14 16:01:00,51.6,33.1,30.01,SW,232,4.0,7.0,49,0.00,,,0.00,VWS V14.01,2013-02-14 21:01:00,
2013-02-14 16:06:00,51.8,32.2,30.01,WSW,242,10.0,13.0,47,0.00,,,0.00,VWS V14.01,2013-02-14 21:06:00,
2013-02-14 16:11:00,51.7,32.1,30.01,WSW,245,4.0,12.0,47,0.00,,,0.00,VWS V14.01,2013-02-14 21:11:00,
2013-02-14 16:16:00,51.7,31.6,30.01,WSW,253,8.0,11.0,46,0.00,,,0.00,VWS V14.01,2013-02-14 21:16:00,
2013-02-14 16:21:00,51.7,32.1,30.02,South,184,5.0,12.0,47,0.00,,,0.00,VWS V14.01,2013-02-14 21:21:00,
2013-02-14 16:26:00,51.7,32.1,30.02,SW,231,6.0,9.0,47,0.00,,,0.00,VWS V14.01,2013-02-14 21:26:00,
2013-02-14 16:31:00,51.8,32.2,30.02,SW,229,11.0,11.0,47,0.00,,,0.00,VWS V14.01,2013-02-14 21:31:00,
2013-02-14 16:36:00,51.8,32.8,30.01,SW,236,2.0,4.0,48,0.00,,,0.00,VWS V14.01,2013-02-14 21:36:00,
2013-02-14 16:41:00,51.8,32.2,30.02,WSW,243,4.0,5.0,47,0.00,,,0.00,VWS V14.01,2013-02-14 21:41:00,
2013-02-14 16:46:00,51.8,32.2,30.02,SSW,206,3.0,3.0,47,0.00,,,0.00,VWS V14.01,2013-02-14 21:46:00,
2013-02-14 16:51:00,51.9,32.3,30.02,South,187,5.0,5.0,47,0.00,,,0.00,VWS V14.01,2013-02-14 21:51:00,
2013-02-14 16:56:00,51.9,32.3,30.02,WSW,241,5.0,11.0,47,0.00,,,0.00,VWS V14.01,2013-02-14 21:56:00,
2013-02-14 17:01:00,51.9,32.3,30.02,West,260,4.0,9.0,47,0.00,,,0.00,VWS V14.01,2013-02-14 22:01:00,
2013-02-14 17:06:00,51.9,32.8,30.02,West,262,3.0,4.0,48,0.00,,,0.00,VWS V14.01,2013-02-14 22:06:00,
2013-02-14 17:11:00,51.9,32.3,30.02,WSW,248,6.0,8.0,47,0.00,,,0.00,VWS V14.01,2013-02-14 22:11:00,
2013-02-14 17:16:00,51.9,31.8,30.02,West,267,7.0,11.0,46,0.00,,,0.00,VWS V14.01,2013-02-14 22:16:00,
2013-02-14 17:21:00,51.8,31.7,30.02,West,267,2.0,3.0,46,0.00,,,0.00,VWS V14.01,2013-02-14 22:21:00,
2013-02-14 17:26:00,51.7,31.6,30.01,West,259,3.0,8.0,46,0.00,,,0.00,VWS V14.01,2013-02-14 22:26:00,
2013-02-14 17:31:00,51.6,32.0,30.01,SSW,196,1.0,3.0,47,0.00,,,0.00,VWS V14.01,2013-02-14 22:31:00,
2013-02-14 17:36:00,51.5,32.0,30.01,WSW,252,1.0,5.0,47,0.00,,,0.00,VWS V14.01,2013-02-14 22:36:00,
2013-02-14 17:41:00,51.3,31.8,30.01,West,259,3.0,5.0,47,0.00,,,0.00,VWS V14.01,2013-02-14 22:41:00,
2013-02-14 17:46:00,51.1,32.1,30.01,WSW,248,2.0,5.0,48,0.00,,,0.00,VWS V14.01,2013-02-14 22:46:00,
2013-02-14 17:51:00,50.9,31.4,30.01,WSW,254,4.0,4.0,47,0.00,,,0.00,VWS V14.01,2013-02-14 22:51:00,
2013-02-14 17:56:00,50.7,31.7,30.02,West,269,3.0,6.0,48,0.00,,,0.00,VWS V14.01,2013-02-14 22:56:00,
2013-02-14 18:01:00,50.4,32.0,30.02,West,262,2.0,3.0,49,0.00,,,0.00,VWS V14.01,2013-02-14 23:01:00,
2013-02-14 18:06:00,50.0,31.6,30.01,WSW,246,2.0,4.0,49,0.00,,,0.00,VWS V14.01,2013-02-14 23:06:00,
2013-02-14 18:11:00,49.8,31.9,30.01,South,176,0.0,1.0,50,0.00,,,0.00,VWS V14.01,2013-02-14 23:11:00,
2013-02-14 18:16:00,49.5,31.6,30.02,SSE,159,0.0,1.0,50,0.00,,,0.00,VWS V14.01,2013-02-14 23:16:00,
2013-02-14 18:21:00,49.1,31.8,30.02,SSE,162,1.0,2.0,51,0.00,,,0.00,VWS V14.01,2013-02-14 23:21:00,
2013-02-14 18:26:00,48.8,31.5,30.01,SSE,162,0.0,0.0,51,0.00,,,0.00,VWS V14.01,2013-02-14 23:26:00,
2013-02-14 18:31:00,48.5,31.2,30.01,SSE,155,0.0,1.0,51,0.00,,,0.00,VWS V14.01,2013-02-14 23:31:00,
2013-02-14 18:36:00,48.2,31.4,30.02,SSE,153,0.0,0.0,52,0.00,,,0.00,VWS V14.01,2013-02-14 23:36:00,
2013-02-14 18:41:00,47.8,31.0,30.02,SSE,156,0.0,1.0,52,0.00,,,0.00,VWS V14.01,2013-02-14 23:41:00,
2013-02-14 18:46:00,47.5,31.2,30.02,SSE,156,0.0,0.0,53,0.00,,,0.00,VWS V14.01,2013-02-14 23:46:00,
2013-02-14 18:51:00,47.0,31.2,30.02,SSE,156,1.0,2.0,54,0.00,,,0.00,VWS V14.01,2013-02-14 23:51:00,
2013-02-14 18:56:00,46.5,31.2,30.02,SSE,156,0.0,0.0,55,0.00,,,0.00,VWS V14.01,2013-02-14 23:56:00,
2013-02-14 19:01:00,46.1,30.9,30.02,SSE,156,0.0,0.0,55,0.00,,,0.00,VWS V14.01,2013-02-15 00:01:00,
2013-02-14 19:06:00,45.8,30.6,30.02,SSE,156,0.0,0.0,55,0.00,,,0.00,VWS V14.01,2013-02-15 00:06:00,
2013-02-14 19:11:00,45.6,30.4,30.02,SSE,155,0.0,0.0,55,0.00,,,0.00,VWS V14.01,2013-02-15 00:11:00,
2013-02-14 19:16:00,45.4,30.6,30.02,SSE,155,0.0,0.0,56,0.00,,,0.00,VWS V14.01,2013-02-15 00:16:00,
2013-02-14 19:21:00,45.1,30.4,30.02,SSE,155,0.0,0.0,56,0.00,,,0.00,VWS V14.01,2013-02-15 00:21:00,
2013-02-14 19:26:00,44.8,30.5,30.03,SSE,155,0.0,0.0,57,0.00,,,0.00,VWS V14.01,2013-02-15 00:26:00,
2013-02-14 19:31:00,44.5,30.7,30.03,SSE,149,1.0,2.0,58,0.00,,,0.00,VWS V14.01,2013-02-15 00:31:00,
2013-02-14 19:36:00,44.3,30.5,30.03,SSE,149,0.0,1.0,58,0.00,,,0.00,VWS V14.01,2013-02-15 00:36:00,
2013-02-14 19:41:00,44.0,30.6,30.02,SSE,149,0.0,0.0,59,0.00,,,0.00,VWS V14.01,2013-02-15 00:41:00,
2013-02-14 19:46:00,43.7,30.3,30.03,SSE,149,0.0,0.0,59,0.00,,,0.00,VWS V14.01,2013-02-15 00:46:00,
2013-02-14 19:51:00,43.5,30.5,30.03,SSE,149,0.0,0.0,60,0.00,,,0.00,VWS V14.01,2013-02-15 00:51:00,
2013-02-14 19:56:00,43.2,30.7,30.03,SSE,149,0.0,0.0,61,0.00,,,0.00,VWS V14.01,2013-02-15 00:56:00,
2013-02-14 20:01:00,42.8,30.7,30.03,SSE,149,2.0,2.0,62,0.00,,,0.00,VWS V14.01,2013-02-15 01:01:00,
2013-02-14 20:06:00,42.4,30.7,30.03,SSE,149,2.0,2.0,63,0.00,,,0.00,VWS V14.01,2013-02-15 01:06:00,
2013-02-14 20:11:00,42.1,31.2,30.03,SSE,149,2.0,2.0,65,0.00,,,0.00,VWS V14.01,2013-02-15 01:11:00,
2013-02-14 20:16:00,41.9,31.0,30.03,SSE,149,1.0,2.0,65,0.00,,,0.00,VWS V14.01,2013-02-15 01:16:00,
2013-02-14 20:21:00,41.7,31.2,30.03,SSE,149,1.0,2.0,66,0.00,,,0.00,VWS V14.01,2013-02-15 01:21:00,
2013-02-14 20:26:00,41.5,31.0,30.03,SSE,149,0.0,0.0,66,0.00,,,0.00,VWS V14.01,2013-02-15 01:26:00,
2013-02-14 20:31:00,41.3,30.8,30.03,SSE,149,0.0,0.0,66,0.00,,,0.00,VWS V14.01,2013-02-15 01:31:00,
2013-02-14 20:36:00,41.1,31.0,30.03,SSE,149,0.0,0.0,67,0.00,,,0.00,VWS V14.01,2013-02-15 01:36:00,
2013-02-14 20:41:00,40.8,30.7,30.03,SSE,149,0.0,1.0,67,0.00,,,0.00,VWS V14.01,2013-02-15 01:41:00,
2013-02-14 20:46:00,40.7,31.0,30.03,SSE,149,1.0,1.0,68,0.00,,,0.00,VWS V14.01,2013-02-15 01:46:00,
2013-02-14 20:51:00,40.7,31.0,30.03,SSE,149,0.0,1.0,68,0.00,,,0.00,VWS V14.01,2013-02-15 01:51:00,
2013-02-14 20:56:00,40.7,31.0,30.03,SSE,149,2.0,2.0,68,0.00,,,0.00,VWS V14.01,2013-02-15 01:56:00,
2013-02-14 21:01:00,40.6,30.9,30.03,SSE,149,1.0,1.0,68,0.00,,,0.00,VWS V14.01,2013-02-15 02:01:00,
2013-02-14 21:06:00,40.4,30.7,30.03,SSE,149,0.0,0.0,68,0.00,,,0.00,VWS V14.01,2013-02-15 02:06:00,
2013-02-14 21:11:00,40.3,30.6,30.03,SSE,149,0.0,0.0,68,0.00,,,0.00,VWS V14.01,2013-02-15 02:11:00,
2013-02-14 21:16:00,40.1,30.4,30.03,SSE,149,0.0,0.0,68,0.00,,,0.00,VWS V14.01,2013-02-15 02:16:00,
2013-02-14 21:21:00,39.9,30.6,30.03,SSE,149,0.0,0.0,69,0.00,,,0.00,VWS V14.01,2013-02-15 02:21:00,
2013-02-14 21:26:00,39.7,30.4,30.03,SSE,149,0.0,0.0,69,0.00,,,0.00,VWS V14.01,2013-02-15 02:26:00,
2013-02-14 21:31:00,39.4,30.1,30.03,SSE,149,0.0,0.0,69,0.00,,,0.00,VWS V14.01,2013-02-15 02:31:00,
2013-02-14 21:36:00,39.0,29.7,30.03,SSE,149,0.0,0.0,69,0.00,,,0.00,VWS V14.01,2013-02-15 02:36:00,
2013-02-14 21:41:00,38.5,29.2,30.03,SSE,149,0.0,2.0,69,0.00,,,0.00,VWS V14.01,2013-02-15 02:41:00,
2013-02-14 21:46:00,38.0,29.1,30.03,SSE,149,2.0,2.0,70,0.00,,,0.00,VWS V14.01,2013-02-15 02:46:00,
2013-02-14 21:51:00,37.6,28.7,30.03,SSE,149,0.0,0.0,70,0.00,,,0.00,VWS V14.01,2013-02-15 02:51:00,
2013-02-14 21:56:00,37.4,28.9,30.03,SSE,149,0.0,0.0,71,0.00,,,0.00,VWS V14.01,2013-02-15 02:56:00,
2013-02-14 22:01:00,37.3,28.8,30.03,SSE,149,0.0,0.0,71,0.00,,,0.00,VWS V14.01,2013-02-15 03:01:00,
2013-02-14 22:06:00,37.1,28.6,30.04,SSE,149,0.0,0.0,71,0.00,,,0.00,VWS V14.01,2013-02-15 03:06:00,
2013-02-14 22:11:00,37.0,28.8,30.03,SSE,149,0.0,0.0,72,0.00,,,0.00,VWS V14.01,2013-02-15 03:11:00,
2013-02-14 22:16:00,36.9,28.7,30.04,SSE,149,0.0,0.0,72,0.00,,,0.00,VWS V14.01,2013-02-15 03:16:00,
2013-02-14 22:21:00,36.7,28.9,30.04,SSE,149,0.0,0.0,73,0.00,,,0.00,VWS V14.01,2013-02-15 03:21:00,
2013-02-14 22:26:00,36.6,28.8,30.04,SSE,149,0.0,0.0,73,0.00,,,0.00,VWS V14.01,2013-02-15 03:26:00,
2013-02-14 22:31:00,36.6,28.8,30.04,SSE,149,0.0,0.0,73,0.00,,,0.00,VWS V14.01,2013-02-15 03:31:00,
2013-02-14 22:36:00,36.5,28.7,30.04,SSE,149,0.0,0.0,73,0.00,,,0.00,VWS V14.01,2013-02-15 03:36:00,
2013-02-14 22:41:00,36.4,28.6,30.04,SSE,149,0.0,0.0,73,0.00,,,0.00,VWS V14.01,2013-02-15 03:41:00,
2013-02-14 22:46:00,36.2,28.4,30.04,SSE,149,0.0,0.0,73,0.00,,,0.00,VWS V14.01,2013-02-15 03:46:00,
2013-02-14 22:51:00,36.1,28.3,30.04,SSE,149,0.0,0.0,73,0.00,,,0.00,VWS V14.01,2013-02-15 03:51:00,
2013-02-14 22:56:00,35.9,28.4,30.04,SSE,149,0.0,0.0,74,0.00,,,0.00,VWS V14.01,2013-02-15 03:56:00,
2013-02-14 23:01:00,35.8,28.3,30.04,SSE,149,0.0,0.0,74,0.00,,,0.00,VWS V14.01,2013-02-15 04:01:00,
2013-02-14 23:06:00,35.7,28.6,30.04,SSE,149,0.0,0.0,75,0.00,,,0.00,VWS V14.01,2013-02-15 04:06:00,
2013-02-14 23:11:00,35.5,28.4,30.04,SSE,149,0.0,0.0,75,0.00,,,0.00,VWS V14.01,2013-02-15 04:11:00,
2013-02-14 23:16:00,35.3,28.2,30.04,SSE,149,0.0,0.0,75,0.00,,,0.00,VWS V14.01,2013-02-15 04:16:00,
2013-02-14 23:21:00,35.2,28.1,30.04,SSE,149,0.0,0.0,75,0.00,,,0.00,VWS V14.01,2013-02-15 04:21:00,
2013-02-14 23:26:00,35.1,28.3,30.04,SSE,149,0.0,0.0,76,0.00,,,0.00,VWS V14.01,2013-02-15 04:26:00,
2013-02-14 23:31:00,35.0,28.2,30.04,SSE,149,0.0,0.0,76,0.00,,,0.00,VWS V14.01,2013-02-15 04:31:00,
2013-02-14 23:36:00,34.9,28.1,30.04,SSE,149,0.0,0.0,76,0.00,,,0.00,VWS V14.01,2013-02-15 04:36:00,
2013-02-14 23:41:00,34.8,28.0,30.04,SSE,149,0.0,0.0,76,0.00,,,0.00,VWS V14.01,2013-02-15 04:41:00,
2013-02-14 23:46:00,34.7,27.9,30.04,SSE,149,0.0,0.0,76,0.00,,,0.00,VWS V14.01,2013-02-15 04:46:00,
2013-02-14 23:51:00,34.4,28.0,30.04,SSE,149,0.0,0.0,77,0.00,,,0.00,VWS V14.01,2013-02-15 04:51:00,
2013-02-14 23:56:00,34.3,28.2,30.04,SSE,149,0.0,0.0,78,0.00,,,0.00,VWS V14.01,2013-02-15 04:56:00,